<?xml version="1.0" encoding="UTF-8" standalone="no" ?>
<gpx xmlns="http://www.topografix.com/GPX/1/1" xmlns:xsi="http://www.w3.org/2001/XMLSchema-instance" xsi:schemaLocation="http://www.topografix.com/GPX/1/1 http://www.topografix.com/GPX/1/1/gpx.xsd" version="1.1" creator="VisuGPX - https://www.visugpx.com">
  <metadata>
    <name>GHOREPANI ==&gt; POON HILL (NEPAL)</name>
    <desc><![CDATA[Trek entre DHAULAGIRI et ANNAPURNA]]></desc>
  </metadata>
  <trk>
    <name><![CDATA[GHOREPANI POONHILL]]></name>
    <trkseg>
      <trkpt lat="28.40303" lon="83.69994">
        <ele>2803.34</ele>
        <time>2013-11-01T00:56:50Z</time>
      </trkpt>
      <trkpt lat="28.40303" lon="83.69994">
        <ele>2808.15</ele>
        <time>2013-11-01T00:56:51Z</time>
      </trkpt>
      <trkpt lat="28.40303" lon="83.69995">
        <ele>2804.3</ele>
        <time>2013-11-01T00:56:52Z</time>
      </trkpt>
      <trkpt lat="28.40301" lon="83.70001">
        <ele>2803.82</ele>
        <time>2013-11-01T00:57:05Z</time>
      </trkpt>
      <trkpt lat="28.40294" lon="83.70001">
        <ele>2807.67</ele>
        <time>2013-11-01T00:57:15Z</time>
      </trkpt>
      <trkpt lat="28.40294" lon="83.70001">
        <ele>2809.59</ele>
        <time>2013-11-01T00:57:16Z</time>
      </trkpt>
      <trkpt lat="28.40291" lon="83.7">
        <ele>2813.92</ele>
        <time>2013-11-01T00:57:19Z</time>
      </trkpt>
      <trkpt lat="28.4029" lon="83.69999">
        <ele>2817.28</ele>
        <time>2013-11-01T00:57:21Z</time>
      </trkpt>
      <trkpt lat="28.40289" lon="83.69999">
        <ele>2820.65</ele>
        <time>2013-11-01T00:57:23Z</time>
      </trkpt>
      <trkpt lat="28.40286" lon="83.69997">
        <ele>2824.49</ele>
        <time>2013-11-01T00:57:26Z</time>
      </trkpt>
      <trkpt lat="28.40284" lon="83.69996">
        <ele>2828.82</ele>
        <time>2013-11-01T00:57:29Z</time>
      </trkpt>
      <trkpt lat="28.40283" lon="83.69995">
        <ele>2831.7</ele>
        <time>2013-11-01T00:57:32Z</time>
      </trkpt>
      <trkpt lat="28.40282" lon="83.69994">
        <ele>2835.06</ele>
        <time>2013-11-01T00:57:35Z</time>
      </trkpt>
      <trkpt lat="28.4028" lon="83.69994">
        <ele>2838.43</ele>
        <time>2013-11-01T00:57:39Z</time>
      </trkpt>
      <trkpt lat="28.40279" lon="83.69994">
        <ele>2838.43</ele>
        <time>2013-11-01T00:57:40Z</time>
      </trkpt>
      <trkpt lat="28.40278" lon="83.69993">
        <ele>2840.83</ele>
        <time>2013-11-01T00:57:42Z</time>
      </trkpt>
      <trkpt lat="28.40275" lon="83.69991">
        <ele>2843.72</ele>
        <time>2013-11-01T00:57:46Z</time>
      </trkpt>
      <trkpt lat="28.40274" lon="83.69991">
        <ele>2844.68</ele>
        <time>2013-11-01T00:57:47Z</time>
      </trkpt>
      <trkpt lat="28.40271" lon="83.6999">
        <ele>2846.12</ele>
        <time>2013-11-01T00:57:50Z</time>
      </trkpt>
      <trkpt lat="28.40267" lon="83.69991">
        <ele>2847.56</ele>
        <time>2013-11-01T00:57:53Z</time>
      </trkpt>
      <trkpt lat="28.40257" lon="83.6999">
        <ele>2849.97</ele>
        <time>2013-11-01T00:58:05Z</time>
      </trkpt>
      <trkpt lat="28.40253" lon="83.69985">
        <ele>2851.41</ele>
        <time>2013-11-01T00:58:16Z</time>
      </trkpt>
      <trkpt lat="28.40251" lon="83.69969">
        <ele>2853.81</ele>
        <time>2013-11-01T00:58:30Z</time>
      </trkpt>
      <trkpt lat="28.40251" lon="83.69966">
        <ele>2855.73</ele>
        <time>2013-11-01T00:58:41Z</time>
      </trkpt>
      <trkpt lat="28.40253" lon="83.69965">
        <ele>2855.73</ele>
        <time>2013-11-01T00:58:44Z</time>
      </trkpt>
      <trkpt lat="28.40257" lon="83.69965">
        <ele>2855.73</ele>
        <time>2013-11-01T00:58:48Z</time>
      </trkpt>
      <trkpt lat="28.40263" lon="83.69962">
        <ele>2857.66</ele>
        <time>2013-11-01T00:58:56Z</time>
      </trkpt>
      <trkpt lat="28.40274" lon="83.69955">
        <ele>2858.62</ele>
        <time>2013-11-01T00:59:09Z</time>
      </trkpt>
      <trkpt lat="28.40281" lon="83.69948">
        <ele>2859.1</ele>
        <time>2013-11-01T00:59:20Z</time>
      </trkpt>
      <trkpt lat="28.40281" lon="83.69946">
        <ele>2861.98</ele>
        <time>2013-11-01T00:59:36Z</time>
      </trkpt>
      <trkpt lat="28.40281" lon="83.69945">
        <ele>2862.94</ele>
        <time>2013-11-01T00:59:41Z</time>
      </trkpt>
      <trkpt lat="28.40284" lon="83.69932">
        <ele>2863.9</ele>
        <time>2013-11-01T00:59:53Z</time>
      </trkpt>
      <trkpt lat="28.40285" lon="83.69926">
        <ele>2865.83</ele>
        <time>2013-11-01T01:00:07Z</time>
      </trkpt>
      <trkpt lat="28.40284" lon="83.69925">
        <ele>2867.75</ele>
        <time>2013-11-01T01:00:18Z</time>
      </trkpt>
      <trkpt lat="28.40284" lon="83.69924">
        <ele>2869.67</ele>
        <time>2013-11-01T01:00:23Z</time>
      </trkpt>
      <trkpt lat="28.40282" lon="83.69921">
        <ele>2872.56</ele>
        <time>2013-11-01T01:00:38Z</time>
      </trkpt>
      <trkpt lat="28.40279" lon="83.69913">
        <ele>2873.52</ele>
        <time>2013-11-01T01:00:51Z</time>
      </trkpt>
      <trkpt lat="28.40274" lon="83.69908">
        <ele>2874.96</ele>
        <time>2013-11-01T01:01:04Z</time>
      </trkpt>
      <trkpt lat="28.40272" lon="83.69906">
        <ele>2876.4</ele>
        <time>2013-11-01T01:01:14Z</time>
      </trkpt>
      <trkpt lat="28.40267" lon="83.69897">
        <ele>2878.32</ele>
        <time>2013-11-01T01:01:24Z</time>
      </trkpt>
      <trkpt lat="28.40263" lon="83.69892">
        <ele>2878.32</ele>
        <time>2013-11-01T01:01:31Z</time>
      </trkpt>
      <trkpt lat="28.40257" lon="83.69876">
        <ele>2878.32</ele>
        <time>2013-11-01T01:01:45Z</time>
      </trkpt>
      <trkpt lat="28.40254" lon="83.69878">
        <ele>2880.25</ele>
        <time>2013-11-01T01:01:59Z</time>
      </trkpt>
      <trkpt lat="28.4025" lon="83.69877">
        <ele>2883.13</ele>
        <time>2013-11-01T01:02:10Z</time>
      </trkpt>
      <trkpt lat="28.40246" lon="83.69874">
        <ele>2884.57</ele>
        <time>2013-11-01T01:02:24Z</time>
      </trkpt>
      <trkpt lat="28.40245" lon="83.69872">
        <ele>2885.05</ele>
        <time>2013-11-01T01:02:41Z</time>
      </trkpt>
      <trkpt lat="28.40242" lon="83.6987">
        <ele>2886.02</ele>
        <time>2013-11-01T01:02:58Z</time>
      </trkpt>
      <trkpt lat="28.40239" lon="83.69868">
        <ele>2888.42</ele>
        <time>2013-11-01T01:03:12Z</time>
      </trkpt>
      <trkpt lat="28.40233" lon="83.69862">
        <ele>2890.82</ele>
        <time>2013-11-01T01:03:24Z</time>
      </trkpt>
      <trkpt lat="28.40224" lon="83.69853">
        <ele>2891.78</ele>
        <time>2013-11-01T01:03:37Z</time>
      </trkpt>
      <trkpt lat="28.4022" lon="83.69849">
        <ele>2893.71</ele>
        <time>2013-11-01T01:03:49Z</time>
      </trkpt>
      <trkpt lat="28.40217" lon="83.69848">
        <ele>2895.15</ele>
        <time>2013-11-01T01:03:57Z</time>
      </trkpt>
      <trkpt lat="28.40204" lon="83.69838">
        <ele>2895.63</ele>
        <time>2013-11-01T01:04:12Z</time>
      </trkpt>
      <trkpt lat="28.40192" lon="83.69833">
        <ele>2898.03</ele>
        <time>2013-11-01T01:04:26Z</time>
      </trkpt>
      <trkpt lat="28.40192" lon="83.69831">
        <ele>2900.44</ele>
        <time>2013-11-01T01:04:43Z</time>
      </trkpt>
      <trkpt lat="28.40187" lon="83.69822">
        <ele>2902.36</ele>
        <time>2013-11-01T01:04:57Z</time>
      </trkpt>
      <trkpt lat="28.40181" lon="83.69816">
        <ele>2904.76</ele>
        <time>2013-11-01T01:05:09Z</time>
      </trkpt>
      <trkpt lat="28.40176" lon="83.69813">
        <ele>2905.24</ele>
        <time>2013-11-01T01:05:14Z</time>
      </trkpt>
      <trkpt lat="28.40168" lon="83.69797">
        <ele>2906.68</ele>
        <time>2013-11-01T01:05:27Z</time>
      </trkpt>
      <trkpt lat="28.40169" lon="83.69788">
        <ele>2906.68</ele>
        <time>2013-11-01T01:05:40Z</time>
      </trkpt>
      <trkpt lat="28.40167" lon="83.69786">
        <ele>2906.68</ele>
        <time>2013-11-01T01:06:00Z</time>
      </trkpt>
      <trkpt lat="28.40167" lon="83.69783">
        <ele>2907.65</ele>
        <time>2013-11-01T01:06:13Z</time>
      </trkpt>
      <trkpt lat="28.40167" lon="83.69775">
        <ele>2909.57</ele>
        <time>2013-11-01T01:06:25Z</time>
      </trkpt>
      <trkpt lat="28.40168" lon="83.69773">
        <ele>2910.05</ele>
        <time>2013-11-01T01:06:30Z</time>
      </trkpt>
      <trkpt lat="28.4017" lon="83.69761">
        <ele>2911.49</ele>
        <time>2013-11-01T01:06:43Z</time>
      </trkpt>
      <trkpt lat="28.40158" lon="83.69745">
        <ele>2911.97</ele>
        <time>2013-11-01T01:06:56Z</time>
      </trkpt>
      <trkpt lat="28.40148" lon="83.69738">
        <ele>2913.41</ele>
        <time>2013-11-01T01:07:07Z</time>
      </trkpt>
      <trkpt lat="28.40144" lon="83.69736">
        <ele>2914.85</ele>
        <time>2013-11-01T01:07:18Z</time>
      </trkpt>
      <trkpt lat="28.40139" lon="83.69735">
        <ele>2916.78</ele>
        <time>2013-11-01T01:07:30Z</time>
      </trkpt>
      <trkpt lat="28.40132" lon="83.69733">
        <ele>2919.66</ele>
        <time>2013-11-01T01:07:42Z</time>
      </trkpt>
      <trkpt lat="28.4012" lon="83.69732">
        <ele>2921.1</ele>
        <time>2013-11-01T01:07:54Z</time>
      </trkpt>
      <trkpt lat="28.40119" lon="83.69729">
        <ele>2923.51</ele>
        <time>2013-11-01T01:08:04Z</time>
      </trkpt>
      <trkpt lat="28.4012" lon="83.69728">
        <ele>2924.47</ele>
        <time>2013-11-01T01:08:10Z</time>
      </trkpt>
      <trkpt lat="28.40122" lon="83.6972">
        <ele>2923.51</ele>
        <time>2013-11-01T01:08:17Z</time>
      </trkpt>
      <trkpt lat="28.4012" lon="83.69711">
        <ele>2923.99</ele>
        <time>2013-11-01T01:08:28Z</time>
      </trkpt>
      <trkpt lat="28.40115" lon="83.69703">
        <ele>2923.51</ele>
        <time>2013-11-01T01:08:42Z</time>
      </trkpt>
      <trkpt lat="28.40115" lon="83.69703">
        <ele>2923.51</ele>
        <time>2013-11-01T01:08:58Z</time>
      </trkpt>
      <trkpt lat="28.40115" lon="83.69703">
        <ele>2923.51</ele>
        <time>2013-11-01T01:09:00Z</time>
      </trkpt>
      <trkpt lat="28.40114" lon="83.69697">
        <ele>2925.43</ele>
        <time>2013-11-01T01:09:11Z</time>
      </trkpt>
      <trkpt lat="28.40114" lon="83.69696">
        <ele>2926.87</ele>
        <time>2013-11-01T01:09:19Z</time>
      </trkpt>
      <trkpt lat="28.40118" lon="83.69692">
        <ele>2929.27</ele>
        <time>2013-11-01T01:09:32Z</time>
      </trkpt>
      <trkpt lat="28.40124" lon="83.6969">
        <ele>2930.72</ele>
        <time>2013-11-01T01:09:43Z</time>
      </trkpt>
      <trkpt lat="28.40125" lon="83.69689">
        <ele>2932.64</ele>
        <time>2013-11-01T01:09:49Z</time>
      </trkpt>
      <trkpt lat="28.40126" lon="83.69683">
        <ele>2934.08</ele>
        <time>2013-11-01T01:10:00Z</time>
      </trkpt>
      <trkpt lat="28.40128" lon="83.69676">
        <ele>2935.52</ele>
        <time>2013-11-01T01:10:13Z</time>
      </trkpt>
      <trkpt lat="28.40127" lon="83.69668">
        <ele>2938.41</ele>
        <time>2013-11-01T01:10:25Z</time>
      </trkpt>
      <trkpt lat="28.40126" lon="83.69664">
        <ele>2938.89</ele>
        <time>2013-11-01T01:10:40Z</time>
      </trkpt>
      <trkpt lat="28.40126" lon="83.69663">
        <ele>2938.89</ele>
        <time>2013-11-01T01:11:06Z</time>
      </trkpt>
      <trkpt lat="28.40128" lon="83.6966">
        <ele>2939.85</ele>
        <time>2013-11-01T01:11:26Z</time>
      </trkpt>
      <trkpt lat="28.40128" lon="83.69658">
        <ele>2940.33</ele>
        <time>2013-11-01T01:11:43Z</time>
      </trkpt>
      <trkpt lat="28.40127" lon="83.69658">
        <ele>2940.33</ele>
        <time>2013-11-01T01:12:04Z</time>
      </trkpt>
      <trkpt lat="28.40123" lon="83.69657">
        <ele>2943.69</ele>
        <time>2013-11-01T01:12:15Z</time>
      </trkpt>
      <trkpt lat="28.40125" lon="83.69647">
        <ele>2945.62</ele>
        <time>2013-11-01T01:12:27Z</time>
      </trkpt>
      <trkpt lat="28.40125" lon="83.69634">
        <ele>2947.54</ele>
        <time>2013-11-01T01:12:41Z</time>
      </trkpt>
      <trkpt lat="28.40123" lon="83.6963">
        <ele>2948.98</ele>
        <time>2013-11-01T01:12:48Z</time>
      </trkpt>
      <trkpt lat="28.40122" lon="83.6963">
        <ele>2950.9</ele>
        <time>2013-11-01T01:12:58Z</time>
      </trkpt>
      <trkpt lat="28.4012" lon="83.6963">
        <ele>2952.35</ele>
        <time>2013-11-01T01:13:07Z</time>
      </trkpt>
      <trkpt lat="28.40118" lon="83.69629">
        <ele>2953.79</ele>
        <time>2013-11-01T01:13:21Z</time>
      </trkpt>
      <trkpt lat="28.40117" lon="83.69628">
        <ele>2953.79</ele>
        <time>2013-11-01T01:13:22Z</time>
      </trkpt>
      <trkpt lat="28.40115" lon="83.69622">
        <ele>2955.23</ele>
        <time>2013-11-01T01:13:35Z</time>
      </trkpt>
      <trkpt lat="28.40112" lon="83.6962">
        <ele>2956.67</ele>
        <time>2013-11-01T01:13:49Z</time>
      </trkpt>
      <trkpt lat="28.40113" lon="83.6962">
        <ele>2957.15</ele>
        <time>2013-11-01T01:14:05Z</time>
      </trkpt>
      <trkpt lat="28.40113" lon="83.6962">
        <ele>2957.63</ele>
        <time>2013-11-01T01:14:35Z</time>
      </trkpt>
      <trkpt lat="28.40113" lon="83.69619">
        <ele>2957.63</ele>
        <time>2013-11-01T01:14:57Z</time>
      </trkpt>
      <trkpt lat="28.4011" lon="83.69618">
        <ele>2958.59</ele>
        <time>2013-11-01T01:15:19Z</time>
      </trkpt>
      <trkpt lat="28.40106" lon="83.69614">
        <ele>2960.04</ele>
        <time>2013-11-01T01:15:30Z</time>
      </trkpt>
      <trkpt lat="28.40105" lon="83.69612">
        <ele>2960.04</ele>
        <time>2013-11-01T01:15:37Z</time>
      </trkpt>
      <trkpt lat="28.401" lon="83.69606">
        <ele>2963.4</ele>
        <time>2013-11-01T01:15:48Z</time>
      </trkpt>
      <trkpt lat="28.40096" lon="83.69601">
        <ele>2964.36</ele>
        <time>2013-11-01T01:15:58Z</time>
      </trkpt>
      <trkpt lat="28.40091" lon="83.69596">
        <ele>2967.25</ele>
        <time>2013-11-01T01:16:09Z</time>
      </trkpt>
      <trkpt lat="28.40086" lon="83.69589">
        <ele>2968.69</ele>
        <time>2013-11-01T01:16:19Z</time>
      </trkpt>
      <trkpt lat="28.40084" lon="83.69589">
        <ele>2969.65</ele>
        <time>2013-11-01T01:16:21Z</time>
      </trkpt>
      <trkpt lat="28.4008" lon="83.69589">
        <ele>2971.09</ele>
        <time>2013-11-01T01:16:34Z</time>
      </trkpt>
      <trkpt lat="28.4008" lon="83.69589">
        <ele>2971.09</ele>
        <time>2013-11-01T01:16:42Z</time>
      </trkpt>
      <trkpt lat="28.40077" lon="83.69582">
        <ele>2973.98</ele>
        <time>2013-11-01T01:16:55Z</time>
      </trkpt>
      <trkpt lat="28.40076" lon="83.69576">
        <ele>2975.42</ele>
        <time>2013-11-01T01:17:03Z</time>
      </trkpt>
      <trkpt lat="28.40075" lon="83.69569">
        <ele>2976.38</ele>
        <time>2013-11-01T01:17:18Z</time>
      </trkpt>
      <trkpt lat="28.40075" lon="83.69568">
        <ele>2976.86</ele>
        <time>2013-11-01T01:17:37Z</time>
      </trkpt>
      <trkpt lat="28.40075" lon="83.69568">
        <ele>2976.86</ele>
        <time>2013-11-01T01:17:56Z</time>
      </trkpt>
      <trkpt lat="28.40075" lon="83.69568">
        <ele>2976.38</ele>
        <time>2013-11-01T01:18:27Z</time>
      </trkpt>
      <trkpt lat="28.40075" lon="83.69568">
        <ele>2976.86</ele>
        <time>2013-11-01T01:18:56Z</time>
      </trkpt>
      <trkpt lat="28.40075" lon="83.69566">
        <ele>2977.34</ele>
        <time>2013-11-01T01:19:16Z</time>
      </trkpt>
      <trkpt lat="28.40075" lon="83.69557">
        <ele>2978.78</ele>
        <time>2013-11-01T01:19:37Z</time>
      </trkpt>
      <trkpt lat="28.40076" lon="83.69554">
        <ele>2979.74</ele>
        <time>2013-11-01T01:19:51Z</time>
      </trkpt>
      <trkpt lat="28.40076" lon="83.69553">
        <ele>2979.74</ele>
        <time>2013-11-01T01:20:14Z</time>
      </trkpt>
      <trkpt lat="28.40072" lon="83.69557">
        <ele>2983.11</ele>
        <time>2013-11-01T01:20:29Z</time>
      </trkpt>
      <trkpt lat="28.40071" lon="83.69553">
        <ele>2985.03</ele>
        <time>2013-11-01T01:20:41Z</time>
      </trkpt>
      <trkpt lat="28.4007" lon="83.6955">
        <ele>2986.47</ele>
        <time>2013-11-01T01:20:53Z</time>
      </trkpt>
      <trkpt lat="28.40069" lon="83.69545">
        <ele>2989.84</ele>
        <time>2013-11-01T01:21:06Z</time>
      </trkpt>
      <trkpt lat="28.40068" lon="83.69542">
        <ele>2991.28</ele>
        <time>2013-11-01T01:21:20Z</time>
      </trkpt>
      <trkpt lat="28.40066" lon="83.69538">
        <ele>2991.76</ele>
        <time>2013-11-01T01:21:34Z</time>
      </trkpt>
      <trkpt lat="28.40065" lon="83.69536">
        <ele>2992.24</ele>
        <time>2013-11-01T01:21:53Z</time>
      </trkpt>
      <trkpt lat="28.40062" lon="83.6953">
        <ele>2995.12</ele>
        <time>2013-11-01T01:22:07Z</time>
      </trkpt>
      <trkpt lat="28.40061" lon="83.69526">
        <ele>2996.57</ele>
        <time>2013-11-01T01:22:21Z</time>
      </trkpt>
      <trkpt lat="28.40061" lon="83.69525">
        <ele>2996.09</ele>
        <time>2013-11-01T01:22:25Z</time>
      </trkpt>
      <trkpt lat="28.40057" lon="83.69522">
        <ele>2998.49</ele>
        <time>2013-11-01T01:22:39Z</time>
      </trkpt>
      <trkpt lat="28.40054" lon="83.69518">
        <ele>3000.89</ele>
        <time>2013-11-01T01:22:53Z</time>
      </trkpt>
      <trkpt lat="28.40054" lon="83.69518">
        <ele>3000.89</ele>
        <time>2013-11-01T01:22:54Z</time>
      </trkpt>
      <trkpt lat="28.40053" lon="83.69516">
        <ele>3001.37</ele>
        <time>2013-11-01T01:23:09Z</time>
      </trkpt>
      <trkpt lat="28.40052" lon="83.69514">
        <ele>3002.82</ele>
        <time>2013-11-01T01:23:26Z</time>
      </trkpt>
      <trkpt lat="28.40051" lon="83.69509">
        <ele>3004.74</ele>
        <time>2013-11-01T01:23:40Z</time>
      </trkpt>
      <trkpt lat="28.40051" lon="83.69505">
        <ele>3005.22</ele>
        <time>2013-11-01T01:23:52Z</time>
      </trkpt>
      <trkpt lat="28.40051" lon="83.695">
        <ele>3006.66</ele>
        <time>2013-11-01T01:24:06Z</time>
      </trkpt>
      <trkpt lat="28.4005" lon="83.69493">
        <ele>3009.06</ele>
        <time>2013-11-01T01:24:18Z</time>
      </trkpt>
      <trkpt lat="28.40051" lon="83.69486">
        <ele>3011.95</ele>
        <time>2013-11-01T01:24:29Z</time>
      </trkpt>
      <trkpt lat="28.40053" lon="83.69476">
        <ele>3014.83</ele>
        <time>2013-11-01T01:24:43Z</time>
      </trkpt>
      <trkpt lat="28.40054" lon="83.69472">
        <ele>3018.2</ele>
        <time>2013-11-01T01:24:56Z</time>
      </trkpt>
      <trkpt lat="28.40054" lon="83.69467">
        <ele>3020.12</ele>
        <time>2013-11-01T01:25:06Z</time>
      </trkpt>
      <trkpt lat="28.40052" lon="83.69456">
        <ele>3022.04</ele>
        <time>2013-11-01T01:25:20Z</time>
      </trkpt>
      <trkpt lat="28.40049" lon="83.69447">
        <ele>3023.96</ele>
        <time>2013-11-01T01:25:32Z</time>
      </trkpt>
      <trkpt lat="28.40049" lon="83.69444">
        <ele>3023.96</ele>
        <time>2013-11-01T01:25:45Z</time>
      </trkpt>
      <trkpt lat="28.4005" lon="83.69443">
        <ele>3023.96</ele>
        <time>2013-11-01T01:26:05Z</time>
      </trkpt>
      <trkpt lat="28.40049" lon="83.69442">
        <ele>3024.44</ele>
        <time>2013-11-01T01:26:20Z</time>
      </trkpt>
      <trkpt lat="28.40048" lon="83.69444">
        <ele>3024.44</ele>
        <time>2013-11-01T01:26:37Z</time>
      </trkpt>
      <trkpt lat="28.40048" lon="83.69444">
        <ele>3024.44</ele>
        <time>2013-11-01T01:26:53Z</time>
      </trkpt>
      <trkpt lat="28.40048" lon="83.69444">
        <ele>3024.44</ele>
        <time>2013-11-01T01:27:04Z</time>
      </trkpt>
      <trkpt lat="28.40049" lon="83.69431">
        <ele>3025.41</ele>
        <time>2013-11-01T01:27:17Z</time>
      </trkpt>
      <trkpt lat="28.4005" lon="83.69422">
        <ele>3026.85</ele>
        <time>2013-11-01T01:27:25Z</time>
      </trkpt>
      <trkpt lat="28.40046" lon="83.69412">
        <ele>3029.73</ele>
        <time>2013-11-01T01:27:37Z</time>
      </trkpt>
      <trkpt lat="28.40045" lon="83.69405">
        <ele>3031.17</ele>
        <time>2013-11-01T01:27:49Z</time>
      </trkpt>
      <trkpt lat="28.40042" lon="83.69401">
        <ele>3034.06</ele>
        <time>2013-11-01T01:27:57Z</time>
      </trkpt>
      <trkpt lat="28.40038" lon="83.69394">
        <ele>3036.46</ele>
        <time>2013-11-01T01:28:08Z</time>
      </trkpt>
      <trkpt lat="28.4004" lon="83.69387">
        <ele>3038.86</ele>
        <time>2013-11-01T01:28:21Z</time>
      </trkpt>
      <trkpt lat="28.40039" lon="83.6938">
        <ele>3041.27</ele>
        <time>2013-11-01T01:28:34Z</time>
      </trkpt>
      <trkpt lat="28.40036" lon="83.69372">
        <ele>3042.71</ele>
        <time>2013-11-01T01:28:48Z</time>
      </trkpt>
      <trkpt lat="28.40034" lon="83.69366">
        <ele>3044.15</ele>
        <time>2013-11-01T01:29:00Z</time>
      </trkpt>
      <trkpt lat="28.40033" lon="83.69359">
        <ele>3046.07</ele>
        <time>2013-11-01T01:29:15Z</time>
      </trkpt>
      <trkpt lat="28.40031" lon="83.69346">
        <ele>3048.48</ele>
        <time>2013-11-01T01:29:33Z</time>
      </trkpt>
      <trkpt lat="28.40029" lon="83.69339">
        <ele>3050.4</ele>
        <time>2013-11-01T01:29:47Z</time>
      </trkpt>
      <trkpt lat="28.40027" lon="83.69329">
        <ele>3052.32</ele>
        <time>2013-11-01T01:30:03Z</time>
      </trkpt>
      <trkpt lat="28.40024" lon="83.69319">
        <ele>3054.73</ele>
        <time>2013-11-01T01:30:18Z</time>
      </trkpt>
      <trkpt lat="28.40021" lon="83.69307">
        <ele>3057.61</ele>
        <time>2013-11-01T01:30:35Z</time>
      </trkpt>
      <trkpt lat="28.40017" lon="83.69294">
        <ele>3060.01</ele>
        <time>2013-11-01T01:30:50Z</time>
      </trkpt>
      <trkpt lat="28.40013" lon="83.69283">
        <ele>3060.98</ele>
        <time>2013-11-01T01:31:00Z</time>
      </trkpt>
      <trkpt lat="28.40012" lon="83.69271">
        <ele>3062.42</ele>
        <time>2013-11-01T01:31:12Z</time>
      </trkpt>
      <trkpt lat="28.4001" lon="83.69265">
        <ele>3064.82</ele>
        <time>2013-11-01T01:31:24Z</time>
      </trkpt>
      <trkpt lat="28.40008" lon="83.69259">
        <ele>3067.22</ele>
        <time>2013-11-01T01:31:36Z</time>
      </trkpt>
      <trkpt lat="28.40003" lon="83.69255">
        <ele>3070.11</ele>
        <time>2013-11-01T01:31:48Z</time>
      </trkpt>
      <trkpt lat="28.4" lon="83.69247">
        <ele>3072.03</ele>
        <time>2013-11-01T01:32:01Z</time>
      </trkpt>
      <trkpt lat="28.39995" lon="83.69243">
        <ele>3074.91</ele>
        <time>2013-11-01T01:32:15Z</time>
      </trkpt>
      <trkpt lat="28.39986" lon="83.69242">
        <ele>3078.28</ele>
        <time>2013-11-01T01:32:31Z</time>
      </trkpt>
      <trkpt lat="28.39979" lon="83.69242">
        <ele>3080.2</ele>
        <time>2013-11-01T01:32:44Z</time>
      </trkpt>
      <trkpt lat="28.39971" lon="83.6924">
        <ele>3081.64</ele>
        <time>2013-11-01T01:32:55Z</time>
      </trkpt>
      <trkpt lat="28.39964" lon="83.69235">
        <ele>3084.53</ele>
        <time>2013-11-01T01:33:08Z</time>
      </trkpt>
      <trkpt lat="28.39966" lon="83.69231">
        <ele>3086.45</ele>
        <time>2013-11-01T01:33:20Z</time>
      </trkpt>
      <trkpt lat="28.39967" lon="83.69229">
        <ele>3087.41</ele>
        <time>2013-11-01T01:33:41Z</time>
      </trkpt>
      <trkpt lat="28.39967" lon="83.6922">
        <ele>3089.81</ele>
        <time>2013-11-01T01:33:56Z</time>
      </trkpt>
      <trkpt lat="28.39972" lon="83.6922">
        <ele>3091.74</ele>
        <time>2013-11-01T01:34:07Z</time>
      </trkpt>
      <trkpt lat="28.39975" lon="83.69218">
        <ele>3093.66</ele>
        <time>2013-11-01T01:34:18Z</time>
      </trkpt>
      <trkpt lat="28.39973" lon="83.6921">
        <ele>3095.58</ele>
        <time>2013-11-01T01:34:31Z</time>
      </trkpt>
      <trkpt lat="28.39976" lon="83.69205">
        <ele>3097.99</ele>
        <time>2013-11-01T01:34:45Z</time>
      </trkpt>
      <trkpt lat="28.39974" lon="83.69198">
        <ele>3100.87</ele>
        <time>2013-11-01T01:34:58Z</time>
      </trkpt>
      <trkpt lat="28.39972" lon="83.69198">
        <ele>3101.35</ele>
        <time>2013-11-01T01:35:01Z</time>
      </trkpt>
      <trkpt lat="28.3997" lon="83.69195">
        <ele>3102.79</ele>
        <time>2013-11-01T01:35:15Z</time>
      </trkpt>
      <trkpt lat="28.39965" lon="83.69192">
        <ele>3105.2</ele>
        <time>2013-11-01T01:35:34Z</time>
      </trkpt>
      <trkpt lat="28.39962" lon="83.69187">
        <ele>3106.16</ele>
        <time>2013-11-01T01:35:47Z</time>
      </trkpt>
      <trkpt lat="28.39965" lon="83.6918">
        <ele>3107.6</ele>
        <time>2013-11-01T01:36:03Z</time>
      </trkpt>
      <trkpt lat="28.39966" lon="83.69178">
        <ele>3107.6</ele>
        <time>2013-11-01T01:36:05Z</time>
      </trkpt>
      <trkpt lat="28.39966" lon="83.69167">
        <ele>3107.6</ele>
        <time>2013-11-01T01:36:14Z</time>
      </trkpt>
      <trkpt lat="28.39962" lon="83.69158">
        <ele>3110.48</ele>
        <time>2013-11-01T01:36:27Z</time>
      </trkpt>
      <trkpt lat="28.39958" lon="83.69153">
        <ele>3112.89</ele>
        <time>2013-11-01T01:36:40Z</time>
      </trkpt>
      <trkpt lat="28.39953" lon="83.69149">
        <ele>3114.33</ele>
        <time>2013-11-01T01:36:50Z</time>
      </trkpt>
      <trkpt lat="28.39949" lon="83.6914">
        <ele>3115.77</ele>
        <time>2013-11-01T01:37:02Z</time>
      </trkpt>
      <trkpt lat="28.39952" lon="83.69133">
        <ele>3118.17</ele>
        <time>2013-11-01T01:37:15Z</time>
      </trkpt>
      <trkpt lat="28.39953" lon="83.69125">
        <ele>3121.54</ele>
        <time>2013-11-01T01:37:29Z</time>
      </trkpt>
      <trkpt lat="28.39953" lon="83.6912">
        <ele>3124.42</ele>
        <time>2013-11-01T01:37:47Z</time>
      </trkpt>
      <trkpt lat="28.39952" lon="83.69112">
        <ele>3126.83</ele>
        <time>2013-11-01T01:38:04Z</time>
      </trkpt>
      <trkpt lat="28.39955" lon="83.69102">
        <ele>3129.23</ele>
        <time>2013-11-01T01:38:17Z</time>
      </trkpt>
      <trkpt lat="28.39952" lon="83.69095">
        <ele>3131.63</ele>
        <time>2013-11-01T01:38:31Z</time>
      </trkpt>
      <trkpt lat="28.39947" lon="83.69089">
        <ele>3134.04</ele>
        <time>2013-11-01T01:38:48Z</time>
      </trkpt>
      <trkpt lat="28.3994" lon="83.69085">
        <ele>3135.48</ele>
        <time>2013-11-01T01:39:04Z</time>
      </trkpt>
      <trkpt lat="28.39933" lon="83.69077">
        <ele>3138.84</ele>
        <time>2013-11-01T01:39:20Z</time>
      </trkpt>
      <trkpt lat="28.39934" lon="83.69072">
        <ele>3141.25</ele>
        <time>2013-11-01T01:39:33Z</time>
      </trkpt>
      <trkpt lat="28.39935" lon="83.69066">
        <ele>3144.13</ele>
        <time>2013-11-01T01:39:48Z</time>
      </trkpt>
      <trkpt lat="28.39938" lon="83.69054">
        <ele>3146.05</ele>
        <time>2013-11-01T01:40:03Z</time>
      </trkpt>
      <trkpt lat="28.39944" lon="83.69045">
        <ele>3147.49</ele>
        <time>2013-11-01T01:40:14Z</time>
      </trkpt>
      <trkpt lat="28.3995" lon="83.69041">
        <ele>3149.42</ele>
        <time>2013-11-01T01:40:26Z</time>
      </trkpt>
      <trkpt lat="28.39958" lon="83.69037">
        <ele>3150.86</ele>
        <time>2013-11-01T01:40:39Z</time>
      </trkpt>
      <trkpt lat="28.39964" lon="83.69029">
        <ele>3152.3</ele>
        <time>2013-11-01T01:40:52Z</time>
      </trkpt>
      <trkpt lat="28.39966" lon="83.69029">
        <ele>3152.78</ele>
        <time>2013-11-01T01:41:08Z</time>
      </trkpt>
      <trkpt lat="28.39967" lon="83.69029">
        <ele>3153.26</ele>
        <time>2013-11-01T01:41:34Z</time>
      </trkpt>
      <trkpt lat="28.39968" lon="83.69028">
        <ele>3153.26</ele>
        <time>2013-11-01T01:41:52Z</time>
      </trkpt>
      <trkpt lat="28.39968" lon="83.69028">
        <ele>3153.26</ele>
        <time>2013-11-01T01:42:21Z</time>
      </trkpt>
      <trkpt lat="28.39972" lon="83.69017">
        <ele>3154.7</ele>
        <time>2013-11-01T01:42:34Z</time>
      </trkpt>
      <trkpt lat="28.39974" lon="83.69009">
        <ele>3157.11</ele>
        <time>2013-11-01T01:42:46Z</time>
      </trkpt>
      <trkpt lat="28.39976" lon="83.69005">
        <ele>3158.55</ele>
        <time>2013-11-01T01:42:57Z</time>
      </trkpt>
      <trkpt lat="28.39977" lon="83.69003">
        <ele>3159.03</ele>
        <time>2013-11-01T01:43:18Z</time>
      </trkpt>
      <trkpt lat="28.39977" lon="83.69001">
        <ele>3159.51</ele>
        <time>2013-11-01T01:43:42Z</time>
      </trkpt>
      <trkpt lat="28.3998" lon="83.68993">
        <ele>3161.43</ele>
        <time>2013-11-01T01:43:52Z</time>
      </trkpt>
      <trkpt lat="28.39983" lon="83.68984">
        <ele>3164.32</ele>
        <time>2013-11-01T01:44:04Z</time>
      </trkpt>
      <trkpt lat="28.39986" lon="83.68978">
        <ele>3165.76</ele>
        <time>2013-11-01T01:44:16Z</time>
      </trkpt>
      <trkpt lat="28.39985" lon="83.68974">
        <ele>3167.2</ele>
        <time>2013-11-01T01:44:28Z</time>
      </trkpt>
      <trkpt lat="28.39986" lon="83.68974">
        <ele>3166.72</ele>
        <time>2013-11-01T01:44:43Z</time>
      </trkpt>
      <trkpt lat="28.39986" lon="83.68971">
        <ele>3167.68</ele>
        <time>2013-11-01T01:44:58Z</time>
      </trkpt>
      <trkpt lat="28.39986" lon="83.68971">
        <ele>3167.68</ele>
        <time>2013-11-01T01:45:28Z</time>
      </trkpt>
      <trkpt lat="28.39989" lon="83.68972">
        <ele>3167.68</ele>
        <time>2013-11-01T01:45:34Z</time>
      </trkpt>
      <trkpt lat="28.39993" lon="83.68966">
        <ele>3169.6</ele>
        <time>2013-11-01T01:45:45Z</time>
      </trkpt>
      <trkpt lat="28.39996" lon="83.68962">
        <ele>3170.57</ele>
        <time>2013-11-01T01:45:57Z</time>
      </trkpt>
      <trkpt lat="28.40001" lon="83.68954">
        <ele>3171.05</ele>
        <time>2013-11-01T01:46:06Z</time>
      </trkpt>
      <trkpt lat="28.40008" lon="83.68954">
        <ele>3171.53</ele>
        <time>2013-11-01T01:46:17Z</time>
      </trkpt>
      <trkpt lat="28.40011" lon="83.6895">
        <ele>3171.53</ele>
        <time>2013-11-01T01:46:29Z</time>
      </trkpt>
      <trkpt lat="28.40012" lon="83.6895">
        <ele>3171.53</ele>
        <time>2013-11-01T01:46:55Z</time>
      </trkpt>
      <trkpt lat="28.40012" lon="83.68949">
        <ele>3172.01</ele>
        <time>2013-11-01T01:47:23Z</time>
      </trkpt>
      <trkpt lat="28.40013" lon="83.68949">
        <ele>3171.05</ele>
        <time>2013-11-01T01:47:37Z</time>
      </trkpt>
      <trkpt lat="28.40012" lon="83.68949">
        <ele>3171.05</ele>
        <time>2013-11-01T01:47:46Z</time>
      </trkpt>
      <trkpt lat="28.40013" lon="83.6895">
        <ele>3171.05</ele>
        <time>2013-11-01T01:48:00Z</time>
      </trkpt>
      <trkpt lat="28.40014" lon="83.6895">
        <ele>3171.53</ele>
        <time>2013-11-01T01:48:17Z</time>
      </trkpt>
      <trkpt lat="28.40014" lon="83.6895">
        <ele>3171.53</ele>
        <time>2013-11-01T01:48:38Z</time>
      </trkpt>
      <trkpt lat="28.40014" lon="83.68951">
        <ele>3171.05</ele>
        <time>2013-11-01T01:48:55Z</time>
      </trkpt>
      <trkpt lat="28.40013" lon="83.68953">
        <ele>3171.53</ele>
        <time>2013-11-01T01:49:14Z</time>
      </trkpt>
      <trkpt lat="28.40014" lon="83.68952">
        <ele>3171.53</ele>
        <time>2013-11-01T01:49:41Z</time>
      </trkpt>
      <trkpt lat="28.40013" lon="83.68952">
        <ele>3171.53</ele>
        <time>2013-11-01T01:50:05Z</time>
      </trkpt>
      <trkpt lat="28.40015" lon="83.6895">
        <ele>3172.01</ele>
        <time>2013-11-01T01:50:24Z</time>
      </trkpt>
      <trkpt lat="28.40015" lon="83.68949">
        <ele>3172.01</ele>
        <time>2013-11-01T01:50:44Z</time>
      </trkpt>
      <trkpt lat="28.40015" lon="83.68948">
        <ele>3172.01</ele>
        <time>2013-11-01T01:51:00Z</time>
      </trkpt>
      <trkpt lat="28.40014" lon="83.6895">
        <ele>3171.53</ele>
        <time>2013-11-01T01:51:03Z</time>
      </trkpt>
      <trkpt lat="28.40015" lon="83.68947">
        <ele>3172.49</ele>
        <time>2013-11-01T01:51:17Z</time>
      </trkpt>
      <trkpt lat="28.40015" lon="83.68945">
        <ele>3172.49</ele>
        <time>2013-11-01T01:51:36Z</time>
      </trkpt>
      <trkpt lat="28.40015" lon="83.68946">
        <ele>3172.97</ele>
        <time>2013-11-01T01:52:03Z</time>
      </trkpt>
      <trkpt lat="28.40016" lon="83.68946">
        <ele>3172.97</ele>
        <time>2013-11-01T01:52:37Z</time>
      </trkpt>
      <trkpt lat="28.40016" lon="83.68946">
        <ele>3173.45</ele>
        <time>2013-11-01T01:53:02Z</time>
      </trkpt>
      <trkpt lat="28.40016" lon="83.68945">
        <ele>3173.45</ele>
        <time>2013-11-01T01:53:20Z</time>
      </trkpt>
      <trkpt lat="28.40017" lon="83.68946">
        <ele>3172.97</ele>
        <time>2013-11-01T01:53:35Z</time>
      </trkpt>
      <trkpt lat="28.40016" lon="83.68946">
        <ele>3173.45</ele>
        <time>2013-11-01T01:53:49Z</time>
      </trkpt>
      <trkpt lat="28.40017" lon="83.68946">
        <ele>3173.93</ele>
        <time>2013-11-01T01:54:18Z</time>
      </trkpt>
      <trkpt lat="28.40016" lon="83.68946">
        <ele>3173.45</ele>
        <time>2013-11-01T01:54:45Z</time>
      </trkpt>
      <trkpt lat="28.40016" lon="83.68946">
        <ele>3173.93</ele>
        <time>2013-11-01T01:54:59Z</time>
      </trkpt>
      <trkpt lat="28.40017" lon="83.68946">
        <ele>3174.41</ele>
        <time>2013-11-01T01:55:29Z</time>
      </trkpt>
      <trkpt lat="28.40017" lon="83.68946">
        <ele>3174.89</ele>
        <time>2013-11-01T01:55:59Z</time>
      </trkpt>
      <trkpt lat="28.40017" lon="83.68947">
        <ele>3174.89</ele>
        <time>2013-11-01T01:56:28Z</time>
      </trkpt>
      <trkpt lat="28.40017" lon="83.68947">
        <ele>3175.37</ele>
        <time>2013-11-01T01:56:51Z</time>
      </trkpt>
      <trkpt lat="28.40017" lon="83.68947">
        <ele>3174.89</ele>
        <time>2013-11-01T01:57:21Z</time>
      </trkpt>
      <trkpt lat="28.40017" lon="83.68946">
        <ele>3175.37</ele>
        <time>2013-11-01T01:57:47Z</time>
      </trkpt>
      <trkpt lat="28.40017" lon="83.68946">
        <ele>3175.37</ele>
        <time>2013-11-01T01:58:12Z</time>
      </trkpt>
      <trkpt lat="28.40017" lon="83.68945">
        <ele>3175.37</ele>
        <time>2013-11-01T01:58:43Z</time>
      </trkpt>
      <trkpt lat="28.40017" lon="83.68945">
        <ele>3175.37</ele>
        <time>2013-11-01T01:59:12Z</time>
      </trkpt>
      <trkpt lat="28.40018" lon="83.68946">
        <ele>3175.85</ele>
        <time>2013-11-01T01:59:46Z</time>
      </trkpt>
      <trkpt lat="28.40018" lon="83.68946">
        <ele>3175.37</ele>
        <time>2013-11-01T02:00:06Z</time>
      </trkpt>
      <trkpt lat="28.40018" lon="83.68946">
        <ele>3175.37</ele>
        <time>2013-11-01T02:00:42Z</time>
      </trkpt>
      <trkpt lat="28.40017" lon="83.68946">
        <ele>3176.33</ele>
        <time>2013-11-01T02:01:05Z</time>
      </trkpt>
      <trkpt lat="28.40018" lon="83.68946">
        <ele>3175.37</ele>
        <time>2013-11-01T02:01:26Z</time>
      </trkpt>
      <trkpt lat="28.40018" lon="83.68946">
        <ele>3175.37</ele>
        <time>2013-11-01T02:01:54Z</time>
      </trkpt>
      <trkpt lat="28.40018" lon="83.68946">
        <ele>3175.37</ele>
        <time>2013-11-01T02:02:22Z</time>
      </trkpt>
      <trkpt lat="28.40018" lon="83.68946">
        <ele>3175.85</ele>
        <time>2013-11-01T02:02:45Z</time>
      </trkpt>
      <trkpt lat="28.40018" lon="83.68946">
        <ele>3175.85</ele>
        <time>2013-11-01T02:03:07Z</time>
      </trkpt>
      <trkpt lat="28.40018" lon="83.68946">
        <ele>3175.85</ele>
        <time>2013-11-01T02:03:31Z</time>
      </trkpt>
      <trkpt lat="28.40018" lon="83.68946">
        <ele>3175.85</ele>
        <time>2013-11-01T02:03:55Z</time>
      </trkpt>
      <trkpt lat="28.40018" lon="83.68946">
        <ele>3175.85</ele>
        <time>2013-11-01T02:04:27Z</time>
      </trkpt>
      <trkpt lat="28.40018" lon="83.68947">
        <ele>3176.33</ele>
        <time>2013-11-01T02:04:49Z</time>
      </trkpt>
      <trkpt lat="28.40017" lon="83.68947">
        <ele>3176.33</ele>
        <time>2013-11-01T02:05:12Z</time>
      </trkpt>
      <trkpt lat="28.40017" lon="83.68947">
        <ele>3175.85</ele>
        <time>2013-11-01T02:05:37Z</time>
      </trkpt>
      <trkpt lat="28.40017" lon="83.68947">
        <ele>3176.33</ele>
        <time>2013-11-01T02:05:43Z</time>
      </trkpt>
      <trkpt lat="28.4002" lon="83.68946">
        <ele>3176.33</ele>
        <time>2013-11-01T02:05:58Z</time>
      </trkpt>
      <trkpt lat="28.40018" lon="83.68947">
        <ele>3176.33</ele>
        <time>2013-11-01T02:06:10Z</time>
      </trkpt>
      <trkpt lat="28.40018" lon="83.68947">
        <ele>3177.29</ele>
        <time>2013-11-01T02:06:44Z</time>
      </trkpt>
      <trkpt lat="28.40017" lon="83.68947">
        <ele>3176.81</ele>
        <time>2013-11-01T02:07:16Z</time>
      </trkpt>
      <trkpt lat="28.40017" lon="83.68948">
        <ele>3176.81</ele>
        <time>2013-11-01T02:07:47Z</time>
      </trkpt>
      <trkpt lat="28.40017" lon="83.68948">
        <ele>3176.81</ele>
        <time>2013-11-01T02:08:12Z</time>
      </trkpt>
      <trkpt lat="28.40017" lon="83.68948">
        <ele>3177.29</ele>
        <time>2013-11-01T02:08:41Z</time>
      </trkpt>
      <trkpt lat="28.40019" lon="83.68947">
        <ele>3177.78</ele>
        <time>2013-11-01T02:08:59Z</time>
      </trkpt>
      <trkpt lat="28.40018" lon="83.68947">
        <ele>3177.78</ele>
        <time>2013-11-01T02:09:13Z</time>
      </trkpt>
      <trkpt lat="28.40018" lon="83.68944">
        <ele>3177.78</ele>
        <time>2013-11-01T02:09:28Z</time>
      </trkpt>
      <trkpt lat="28.40019" lon="83.68943">
        <ele>3177.29</ele>
        <time>2013-11-01T02:09:40Z</time>
      </trkpt>
      <trkpt lat="28.40017" lon="83.68948">
        <ele>3177.78</ele>
        <time>2013-11-01T02:09:52Z</time>
      </trkpt>
      <trkpt lat="28.40017" lon="83.68947">
        <ele>3177.78</ele>
        <time>2013-11-01T02:10:20Z</time>
      </trkpt>
      <trkpt lat="28.40015" lon="83.68948">
        <ele>3178.26</ele>
        <time>2013-11-01T02:10:33Z</time>
      </trkpt>
      <trkpt lat="28.40013" lon="83.68947">
        <ele>3179.22</ele>
        <time>2013-11-01T02:10:45Z</time>
      </trkpt>
      <trkpt lat="28.40012" lon="83.68947">
        <ele>3179.22</ele>
        <time>2013-11-01T02:11:18Z</time>
      </trkpt>
      <trkpt lat="28.40011" lon="83.68947">
        <ele>3179.22</ele>
        <time>2013-11-01T02:11:51Z</time>
      </trkpt>
      <trkpt lat="28.40011" lon="83.68946">
        <ele>3179.7</ele>
        <time>2013-11-01T02:12:27Z</time>
      </trkpt>
      <trkpt lat="28.40012" lon="83.68947">
        <ele>3179.7</ele>
        <time>2013-11-01T02:13:00Z</time>
      </trkpt>
      <trkpt lat="28.40011" lon="83.68948">
        <ele>3180.18</ele>
        <time>2013-11-01T02:13:30Z</time>
      </trkpt>
      <trkpt lat="28.40011" lon="83.68948">
        <ele>3180.18</ele>
        <time>2013-11-01T02:13:58Z</time>
      </trkpt>
      <trkpt lat="28.40011" lon="83.68948">
        <ele>3180.18</ele>
        <time>2013-11-01T02:14:18Z</time>
      </trkpt>
      <trkpt lat="28.40016" lon="83.68949">
        <ele>3179.22</ele>
        <time>2013-11-01T02:14:30Z</time>
      </trkpt>
      <trkpt lat="28.40018" lon="83.68948">
        <ele>3179.7</ele>
        <time>2013-11-01T02:14:42Z</time>
      </trkpt>
      <trkpt lat="28.40018" lon="83.68947">
        <ele>3179.7</ele>
        <time>2013-11-01T02:15:07Z</time>
      </trkpt>
      <trkpt lat="28.40018" lon="83.68947">
        <ele>3179.22</ele>
        <time>2013-11-01T02:15:27Z</time>
      </trkpt>
      <trkpt lat="28.40018" lon="83.68947">
        <ele>3179.22</ele>
        <time>2013-11-01T02:15:43Z</time>
      </trkpt>
      <trkpt lat="28.40018" lon="83.68947">
        <ele>3179.7</ele>
        <time>2013-11-01T02:16:07Z</time>
      </trkpt>
      <trkpt lat="28.40018" lon="83.68947">
        <ele>3179.7</ele>
        <time>2013-11-01T02:16:21Z</time>
      </trkpt>
      <trkpt lat="28.40018" lon="83.68948">
        <ele>3179.22</ele>
        <time>2013-11-01T02:16:36Z</time>
      </trkpt>
      <trkpt lat="28.40018" lon="83.68948">
        <ele>3179.7</ele>
        <time>2013-11-01T02:16:47Z</time>
      </trkpt>
      <trkpt lat="28.40022" lon="83.68946">
        <ele>3180.18</ele>
        <time>2013-11-01T02:16:58Z</time>
      </trkpt>
      <trkpt lat="28.40021" lon="83.68947">
        <ele>3175.85</ele>
        <time>2013-11-01T02:17:12Z</time>
      </trkpt>
      <trkpt lat="28.40021" lon="83.68947">
        <ele>3180.66</ele>
        <time>2013-11-01T02:17:13Z</time>
      </trkpt>
      <trkpt lat="28.40021" lon="83.68947">
        <ele>3176.81</ele>
        <time>2013-11-01T02:17:15Z</time>
      </trkpt>
      <trkpt lat="28.40021" lon="83.68947">
        <ele>3182.58</ele>
        <time>2013-11-01T02:17:16Z</time>
      </trkpt>
      <trkpt lat="28.40019" lon="83.68947">
        <ele>3177.78</ele>
        <time>2013-11-01T02:17:19Z</time>
      </trkpt>
      <trkpt lat="28.40019" lon="83.68947">
        <ele>3180.66</ele>
        <time>2013-11-01T02:17:20Z</time>
      </trkpt>
      <trkpt lat="28.40018" lon="83.68948">
        <ele>3179.7</ele>
        <time>2013-11-01T02:17:44Z</time>
      </trkpt>
      <trkpt lat="28.40018" lon="83.68948">
        <ele>3180.18</ele>
        <time>2013-11-01T02:18:06Z</time>
      </trkpt>
      <trkpt lat="28.40018" lon="83.68949">
        <ele>3179.22</ele>
        <time>2013-11-01T02:18:11Z</time>
      </trkpt>
      <trkpt lat="28.40314" lon="83.70004">
        <ele>2844.2</ele>
        <time>2013-11-01T04:08:36Z</time>
      </trkpt>
      <trkpt lat="28.40315" lon="83.7">
        <ele>2847.08</ele>
        <time>2013-11-01T04:09:02Z</time>
      </trkpt>
      <trkpt lat="28.40315" lon="83.70002">
        <ele>2850.45</ele>
        <time>2013-11-01T04:09:11Z</time>
      </trkpt>
      <trkpt lat="28.40315" lon="83.7">
        <ele>2853.33</ele>
        <time>2013-11-01T04:09:18Z</time>
      </trkpt>
      <trkpt lat="28.40315" lon="83.7">
        <ele>2856.69</ele>
        <time>2013-11-01T04:09:26Z</time>
      </trkpt>
      <trkpt lat="28.40317" lon="83.70007">
        <ele>2860.06</ele>
        <time>2013-11-01T04:09:38Z</time>
      </trkpt>
    </trkseg>
  </trk>
</gpx>